createdAt,value
2023-05-23T00:02:27.597Z,40.57
2023-05-23T00:04:59.274Z,40.65
2023-05-23T00:07:27.666Z,41.18
2023-05-23T00:09:55.933Z,41.99
2023-05-23T00:12:24.223Z,42.11
2023-05-23T00:14:54.399Z,41.94
2023-05-23T00:17:26.192Z,42.23
2023-05-23T00:19:56.836Z,42.52
2023-05-23T00:22:25.151Z,42.86
2023-05-23T00:24:54.050Z,42.84
2023-05-23T00:27:22.373Z,43.17
2023-05-23T00:29:51.120Z,42.97
2023-05-23T00:32:19.617Z,43.13
2023-05-23T00:34:47.928Z,43.14
2023-05-23T00:37:16.309Z,43.24
2023-05-23T00:39:44.530Z,43.43
2023-05-23T00:42:12.837Z,43.80
2023-05-23T00:44:41.332Z,44.00
2023-05-23T00:47:09.835Z,44.38
2023-05-23T00:49:38.311Z,44.28
2023-05-23T00:52:06.959Z,44.33
2023-05-23T00:54:37.646Z,44.45
2023-05-23T00:57:06.372Z,44.95
2023-05-23T00:59:38.186Z,45.48
2023-05-23T01:02:06.798Z,45.11
2023-05-23T01:04:36.914Z,45.49
2023-05-23T01:07:05.336Z,45.49
2023-05-23T01:09:33.776Z,45.91
2023-05-23T01:12:11.412Z,45.88
2023-05-23T01:14:58.189Z,46.19
2023-05-23T01:17:37.042Z,46.58
2023-05-23T01:20:13.875Z,46.39
2023-05-23T01:22:57.039Z,46.71
2023-05-23T01:25:51.455Z,47.12
2023-05-23T01:28:23.198Z,47.13
2023-05-23T01:30:57.200Z,47.13
2023-05-23T01:33:27.053Z,47.00
2023-05-23T01:35:57.751Z,47.17
2023-05-23T01:38:26.002Z,47.69
2023-05-23T01:40:55.414Z,47.61
2023-05-23T01:43:26.138Z,47.93
2023-05-23T01:45:57.536Z,47.94
2023-05-23T01:48:28.118Z,48.22
2023-05-23T01:50:58.074Z,48.07
2023-05-23T01:53:27.829Z,48.08
2023-05-23T01:55:56.787Z,48.24
2023-05-23T01:58:25.104Z,48.55
2023-05-23T02:00:53.530Z,48.38
2023-05-23T02:03:22.012Z,48.82
2023-05-23T02:05:50.400Z,48.73
2023-05-23T02:08:18.644Z,49.05
2023-05-23T02:10:46.924Z,48.74
2023-05-23T02:13:15.150Z,48.84
2023-05-23T02:15:43.464Z,49.20
2023-05-23T02:18:11.841Z,49.02
2023-05-23T02:20:40.108Z,49.14
2023-05-23T02:23:08.441Z,48.88
2023-05-23T02:25:36.873Z,49.16
2023-05-23T02:28:05.152Z,49.23
2023-05-23T02:30:33.448Z,49.28
2023-05-23T02:33:07.194Z,49.32
2023-05-23T02:35:35.808Z,49.34
2023-05-23T02:38:04.081Z,49.66
2023-05-23T02:40:32.283Z,49.73
2023-05-23T02:43:00.559Z,49.79
2023-05-23T02:45:28.803Z,50.47
2023-05-23T02:47:57.129Z,50.27
2023-05-23T02:50:25.500Z,50.28
2023-05-23T02:52:53.774Z,50.45
2023-05-23T02:55:22.552Z,50.51
2023-05-23T02:57:51.158Z,50.38
2023-05-23T03:00:19.663Z,50.40
2023-05-23T03:02:47.949Z,50.30
2023-05-23T03:05:16.463Z,50.48
2023-05-23T03:07:44.893Z,50.51
2023-05-23T03:10:13.399Z,50.78
2023-05-23T03:12:41.975Z,51.03
2023-05-23T03:15:10.939Z,51.04
2023-05-23T03:17:39.367Z,51.06
2023-05-23T03:20:10.588Z,51.12
2023-05-23T03:22:38.864Z,51.52
2023-05-23T03:25:07.785Z,51.54
2023-05-23T03:27:36.663Z,51.71
2023-05-23T03:30:07.011Z,51.86
2023-05-23T03:32:35.508Z,51.89
2023-05-23T03:35:04.272Z,52.17
2023-05-23T03:37:33.019Z,52.16
2023-05-23T03:40:01.513Z,52.31
2023-05-23T03:42:30.208Z,52.54
2023-05-23T03:44:58.452Z,52.48
2023-05-23T03:47:27.175Z,52.79
2023-05-23T03:49:55.518Z,52.96
2023-05-23T03:52:24.361Z,52.71
2023-05-23T03:54:53.071Z,53.25
2023-05-23T03:57:21.316Z,53.26
2023-05-23T03:59:49.927Z,53.49
2023-05-23T04:02:18.286Z,53.57
2023-05-23T04:04:47.803Z,53.89
2023-05-23T04:07:16.614Z,53.71
2023-05-23T04:09:45.255Z,54.02
2023-05-23T04:12:13.541Z,53.89
2023-05-23T04:14:41.886Z,54.14
2023-05-23T04:17:10.193Z,54.01
2023-05-23T04:19:38.617Z,54.23
2023-05-23T04:22:07.166Z,54.47
2023-05-23T04:24:35.372Z,54.20
2023-05-23T04:27:03.616Z,54.73
2023-05-23T04:29:32.579Z,55.04
2023-05-23T04:32:01.728Z,55.00
2023-05-23T04:34:31.536Z,55.13
2023-05-23T04:36:59.946Z,55.36
2023-05-23T04:39:28.306Z,55.48
2023-05-23T04:41:57.622Z,55.84
2023-05-23T04:44:27.625Z,55.53
2023-05-23T04:46:57.537Z,55.52
2023-05-23T04:49:26.350Z,55.41
2023-05-23T04:51:54.606Z,55.66
2023-05-23T04:54:22.946Z,55.82
2023-05-23T04:56:52.125Z,55.90
2023-05-23T04:59:20.342Z,55.94
2023-05-23T05:01:48.576Z,56.12
2023-05-23T05:04:17.083Z,56.10
2023-05-23T05:06:45.758Z,56.33
2023-05-23T05:09:14.069Z,56.34
2023-05-23T05:11:42.320Z,56.63
2023-05-23T05:14:10.571Z,56.69
2023-05-23T05:16:38.831Z,56.66
2023-05-23T05:19:07.405Z,56.77
2023-05-23T05:21:35.676Z,56.63
2023-05-23T05:24:03.972Z,56.97
2023-05-23T05:26:32.779Z,56.85
2023-05-23T05:29:01.041Z,56.95
2023-05-23T05:31:30.522Z,57.17
2023-05-23T05:33:58.845Z,57.47
2023-05-23T05:36:27.135Z,57.69
2023-05-23T05:38:55.460Z,57.88
2023-05-23T05:41:24.157Z,57.79
2023-05-23T05:43:52.504Z,58.06
2023-05-23T05:46:20.826Z,58.05
2023-05-23T05:48:49.082Z,58.10
2023-05-23T05:51:18.726Z,58.29
2023-05-23T05:53:47.554Z,58.48
2023-05-23T05:56:15.777Z,58.51
2023-05-23T05:58:44.220Z,58.54
2023-05-23T06:01:12.595Z,58.58
2023-05-23T06:03:41.065Z,58.38
2023-05-23T06:06:09.855Z,58.13
2023-05-23T06:08:38.114Z,57.83
2023-05-23T06:11:06.618Z,57.93
2023-05-23T06:13:34.907Z,57.83
2023-05-23T06:16:03.151Z,57.64
2023-05-23T06:18:31.379Z,57.59
2023-05-23T06:20:59.642Z,57.61
2023-05-23T06:23:27.900Z,57.34
2023-05-23T06:25:56.292Z,57.33
2023-05-23T06:28:24.537Z,57.48
2023-05-23T06:30:52.789Z,57.51
2023-05-23T06:33:21.808Z,57.49
2023-05-23T06:35:50.084Z,57.70
2023-05-23T06:38:18.349Z,57.70
2023-05-23T06:40:46.692Z,57.73
2023-05-23T06:43:14.946Z,57.70
2023-05-23T06:45:43.178Z,58.02
2023-05-23T06:48:12.530Z,57.93
2023-05-23T06:50:41.942Z,58.04
2023-05-23T06:53:10.500Z,58.18
2023-05-23T06:55:38.708Z,58.18
2023-05-23T06:58:07.366Z,58.38
2023-05-23T07:00:35.598Z,58.39
2023-05-23T07:03:04.526Z,58.55
2023-05-23T07:05:34.092Z,58.70
2023-05-23T07:08:02.351Z,58.58
2023-05-23T07:10:30.648Z,58.60
2023-05-23T07:12:58.875Z,58.70
2023-05-23T07:15:27.097Z,58.92
2023-05-23T07:17:55.456Z,59.19
2023-05-23T07:20:23.832Z,59.22
2023-05-23T07:22:52.493Z,59.33
2023-05-23T07:25:20.805Z,59.44
2023-05-23T07:27:49.073Z,59.55
2023-05-23T07:30:17.696Z,59.71
2023-05-23T07:32:45.980Z,59.80
2023-05-23T07:35:14.238Z,59.83
2023-05-23T07:37:42.808Z,60.10
2023-05-23T07:40:11.406Z,60.24
2023-05-23T07:42:39.661Z,60.46
2023-05-23T07:45:08.466Z,60.31
2023-05-23T07:47:36.713Z,60.48
2023-05-23T07:50:05.857Z,60.62
2023-05-23T07:52:34.340Z,60.54
2023-05-23T07:55:02.590Z,60.66
2023-05-23T07:57:31.298Z,61.03
2023-05-23T07:59:59.647Z,61.07
2023-05-23T08:02:27.965Z,61.13
2023-05-23T08:04:57.797Z,61.32
2023-05-23T08:07:26.197Z,61.16
2023-05-23T08:09:54.528Z,61.23
2023-05-23T08:12:22.774Z,61.36
2023-05-23T08:14:52.432Z,61.47
2023-05-23T08:17:21.145Z,61.53
2023-05-23T08:19:49.486Z,62.09
2023-05-23T08:22:17.882Z,62.05
2023-05-23T08:24:46.115Z,62.07
2023-05-23T08:27:14.434Z,62.14
2023-05-23T08:29:43.691Z,61.77
2023-05-23T08:32:12.045Z,62.21
2023-05-23T08:34:41.538Z,62.35
2023-05-23T08:37:09.812Z,62.29
2023-05-23T08:39:38.089Z,62.52
2023-05-23T08:42:06.966Z,62.51
2023-05-23T08:44:35.255Z,62.31
2023-05-23T08:47:06.618Z,62.89
2023-05-23T08:49:35.701Z,62.58
2023-05-23T08:52:04.769Z,62.84
2023-05-23T08:54:33.573Z,63.10
2023-05-23T08:57:03.074Z,63.00
2023-05-23T08:59:33.461Z,63.01
2023-05-23T09:02:04.196Z,63.20
2023-05-23T09:04:33.792Z,63.68
2023-05-23T09:07:03.883Z,63.98
2023-05-23T09:09:33.169Z,63.41
2023-05-23T09:12:04.310Z,63.46
2023-05-23T09:14:33.407Z,63.71
2023-05-23T09:17:04.986Z,63.62
2023-05-23T09:19:34.235Z,63.84
2023-05-23T09:22:04.657Z,64.26
2023-05-23T09:24:37.895Z,63.89
2023-05-23T09:27:10.318Z,63.94
2023-05-23T09:29:42.207Z,64.26
2023-05-23T09:32:18.840Z,64.25
2023-05-23T09:34:50.079Z,64.50
2023-05-23T09:37:20.292Z,64.78
2023-05-23T09:39:50.044Z,64.34
2023-05-23T09:42:26.479Z,64.36
2023-05-23T09:44:55.326Z,64.67
2023-05-23T09:47:23.624Z,64.94
2023-05-23T09:49:52.419Z,64.62
2023-05-23T09:52:23.466Z,64.85
2023-05-23T09:54:52.204Z,65.11
2023-05-23T09:57:24.129Z,65.20
2023-05-23T09:59:56.023Z,65.10
2023-05-23T10:03:00.059Z,65.12
2023-05-23T10:05:50.605Z,64.70
2023-05-23T10:08:39.835Z,65.28
2023-05-23T10:11:36.783Z,65.52
2023-05-23T10:14:08.962Z,65.44
2023-05-23T10:17:19.865Z,65.68
2023-05-23T10:20:09.194Z,65.87
2023-05-23T10:22:39.103Z,65.41
2023-05-23T10:25:09.443Z,65.94
2023-05-23T10:27:41.432Z,65.90
2023-05-23T10:30:10.507Z,65.89
2023-05-23T10:32:41.458Z,65.87
2023-05-23T10:35:33.973Z,66.07
2023-05-23T10:38:25.825Z,66.02
2023-05-23T10:41:09.669Z,66.21
2023-05-23T10:43:46.997Z,66.08
2023-05-23T10:46:16.296Z,66.39
2023-05-23T10:48:45.895Z,66.25
2023-05-23T10:51:16.075Z,66.08
2023-05-23T10:53:46.756Z,66.07
2023-05-23T10:56:24.645Z,66.11
2023-05-23T10:58:57.673Z,66.23
2023-05-23T11:01:26.395Z,66.03
2023-05-23T11:03:56.113Z,66.45
2023-05-23T11:06:30.712Z,65.92
2023-05-23T11:09:10.879Z,66.29
2023-05-23T11:11:54.789Z,66.18
2023-05-23T11:14:54.881Z,66.09
2023-05-23T11:17:34.882Z,66.37
2023-05-23T11:20:08.061Z,66.12
2023-05-23T11:22:37.539Z,66.23
2023-05-23T11:25:10.944Z,66.05
2023-05-23T11:27:41.349Z,66.57
2023-05-23T11:30:16.726Z,66.50
2023-05-23T11:32:53.403Z,65.99
2023-05-23T11:35:22.752Z,66.23
2023-05-23T11:37:51.513Z,66.43
2023-05-23T11:40:34.459Z,66.06
2023-05-23T11:43:05.917Z,66.16
2023-05-23T11:45:35.915Z,66.20
2023-05-23T11:48:12.865Z,65.88
2023-05-23T11:50:55.366Z,65.94
2023-05-23T11:53:26.591Z,65.93
2023-05-23T11:56:02.938Z,65.83
2023-05-23T11:58:34.401Z,65.49
2023-05-23T12:01:09.904Z,65.77
2023-05-23T12:03:52.222Z,65.61
2023-05-23T12:06:20.931Z,65.44
2023-05-23T12:08:49.487Z,65.45
2023-05-23T12:11:18.817Z,65.49
2023-05-23T12:13:47.319Z,65.53
2023-05-23T12:16:16.655Z,65.55
2023-05-23T12:18:45.140Z,65.50
2023-05-23T12:21:13.773Z,65.17
2023-05-23T12:23:43.478Z,65.41
2023-05-23T12:26:11.840Z,65.43
2023-05-23T12:28:44.005Z,65.30
2023-05-23T12:31:17.878Z,65.37
2023-05-23T12:33:48.751Z,65.26
2023-05-23T12:36:23.780Z,65.38
2023-05-23T12:38:52.313Z,64.90
2023-05-23T12:41:22.810Z,64.83
2023-05-23T12:43:56.083Z,64.81
2023-05-23T12:46:26.389Z,65.01
2023-05-23T12:48:55.496Z,65.20
2023-05-23T12:51:24.029Z,65.20
2023-05-23T12:53:52.722Z,65.06
2023-05-23T12:56:23.405Z,64.61
2023-05-23T12:58:52.377Z,64.73
2023-05-23T13:01:22.540Z,64.78
2023-05-23T13:03:51.218Z,64.65
2023-05-23T13:06:19.562Z,64.98
2023-05-23T13:08:49.893Z,65.10
2023-05-23T13:11:19.052Z,64.73
2023-05-23T13:13:48.153Z,64.52
2023-05-23T13:16:17.262Z,64.58
2023-05-23T13:18:45.569Z,64.58
2023-05-23T13:21:14.002Z,64.47
2023-05-23T13:23:42.539Z,64.62
2023-05-23T13:26:10.900Z,64.54
2023-05-23T13:28:39.165Z,64.45
2023-05-23T13:31:07.645Z,64.38
2023-05-23T13:33:36.003Z,64.82
2023-05-23T13:36:04.345Z,64.70
2023-05-23T13:38:33.159Z,64.43
2023-05-23T13:41:01.460Z,64.19
2023-05-23T13:43:29.749Z,64.16
2023-05-23T13:45:57.987Z,64.17
2023-05-23T13:48:26.308Z,64.43
2023-05-23T13:50:54.750Z,63.87
2023-05-23T13:53:23.075Z,63.83
2023-05-23T13:55:51.689Z,63.66
2023-05-23T13:58:20.098Z,63.83
2023-05-23T14:00:48.475Z,63.66
2023-05-23T14:03:16.799Z,63.55
2023-05-23T14:05:45.143Z,63.44
2023-05-23T14:08:14.834Z,63.43
2023-05-23T14:10:43.409Z,63.29
2023-05-23T14:13:12.825Z,62.98
2023-05-23T14:15:42.962Z,62.88
2023-05-23T14:18:11.527Z,63.01
2023-05-23T14:20:39.843Z,62.98
2023-05-23T14:23:08.102Z,62.62
2023-05-23T14:25:36.571Z,62.70
2023-05-23T14:28:04.834Z,62.94
2023-05-23T14:30:33.058Z,62.91
2023-05-23T14:33:01.343Z,62.81
2023-05-23T14:35:30.489Z,62.61
2023-05-23T14:37:58.713Z,62.85
2023-05-23T14:40:27.033Z,62.74
2023-05-23T14:42:55.242Z,62.60
2023-05-23T14:45:23.582Z,63.05
2023-05-23T14:47:52.432Z,62.56
2023-05-23T14:50:20.787Z,62.60
2023-05-23T14:52:49.100Z,62.75
2023-05-23T14:55:17.856Z,62.66
2023-05-23T14:57:46.222Z,62.86
2023-05-23T15:00:15.006Z,62.61
2023-05-23T15:02:43.548Z,62.41
2023-05-23T15:05:12.002Z,62.66
2023-05-23T15:07:40.376Z,62.46
2023-05-23T15:10:09.407Z,62.57
2023-05-23T15:12:37.898Z,62.50
2023-05-23T15:15:06.873Z,62.04
2023-05-23T15:17:35.560Z,61.79
2023-05-23T15:20:06.786Z,61.80
2023-05-23T15:22:39.853Z,61.43
2023-05-23T15:25:10.389Z,61.38
2023-05-23T15:27:38.787Z,61.47
2023-05-23T15:30:07.800Z,61.48
2023-05-23T15:32:38.083Z,61.55
2023-05-23T15:35:07.036Z,61.29
2023-05-23T15:37:35.359Z,61.17
2023-05-23T15:40:05.045Z,60.94
2023-05-23T15:42:33.331Z,60.81
2023-05-23T15:45:01.793Z,60.63
2023-05-23T15:47:30.213Z,60.64
2023-05-23T15:49:58.474Z,60.29
2023-05-23T15:52:26.906Z,60.21
2023-05-23T15:54:55.288Z,60.32
2023-05-23T15:57:23.761Z,60.15
2023-05-23T15:59:52.367Z,60.01
2023-05-23T16:02:20.838Z,59.88
2023-05-23T16:04:49.259Z,59.92
2023-05-23T16:07:18.524Z,59.81
2023-05-23T16:09:46.907Z,59.66
2023-05-23T16:12:15.238Z,59.51
2023-05-23T16:14:43.552Z,59.35
2023-05-23T16:17:11.812Z,59.40
2023-05-23T16:19:40.266Z,59.08
2023-05-23T16:22:08.595Z,58.84
2023-05-23T16:24:37.212Z,58.55
2023-05-23T16:27:05.721Z,58.59
2023-05-23T16:29:34.003Z,58.31
2023-05-23T16:32:02.480Z,58.43
2023-05-23T16:34:31.234Z,58.35
2023-05-23T16:36:59.490Z,58.12
2023-05-23T16:39:27.870Z,57.87
2023-05-23T16:41:56.839Z,57.99
2023-05-23T16:44:26.544Z,57.79
2023-05-23T16:46:54.877Z,57.83
2023-05-23T16:49:23.102Z,57.50
2023-05-23T16:51:51.498Z,57.29
2023-05-23T16:54:19.768Z,57.01
2023-05-23T16:56:48.102Z,57.13
2023-05-23T16:59:16.405Z,56.80
2023-05-23T17:01:44.922Z,56.75
2023-05-23T17:04:13.225Z,56.66
2023-05-23T17:06:41.660Z,56.25
2023-05-23T17:09:09.955Z,56.05
2023-05-23T17:11:38.178Z,55.69
2023-05-23T17:14:06.419Z,55.57
2023-05-23T17:16:35.254Z,55.22
2023-05-23T17:19:03.627Z,55.23
2023-05-23T17:21:32.311Z,55.23
2023-05-23T17:24:00.578Z,54.77
2023-05-23T17:26:28.861Z,55.04
2023-05-23T17:28:57.258Z,54.98
2023-05-23T17:31:26.008Z,54.76
2023-05-23T17:33:55.096Z,54.68
2023-05-23T17:36:23.506Z,55.05
2023-05-23T17:38:54.504Z,55.22
2023-05-23T17:41:25.872Z,54.93
2023-05-23T17:43:54.155Z,55.42
2023-05-23T17:46:22.591Z,55.42
2023-05-23T17:48:51.154Z,55.33
2023-05-23T17:51:19.407Z,55.14
2023-05-23T17:53:47.728Z,54.46
2023-05-23T17:56:15.960Z,54.19
2023-05-23T17:58:44.558Z,54.17
2023-05-23T18:01:14.251Z,54.23
2023-05-23T18:03:42.575Z,53.91
2023-05-23T18:06:10.973Z,53.58
2023-05-23T18:08:39.256Z,53.68
2023-05-23T18:11:07.534Z,53.40
2023-05-23T18:13:35.779Z,52.77
2023-05-23T18:16:04.101Z,52.61
2023-05-23T18:18:32.590Z,52.72
2023-05-23T18:21:00.974Z,52.54
2023-05-23T18:23:29.273Z,52.10
2023-05-23T18:25:57.789Z,51.95
2023-05-23T18:28:26.106Z,51.88
2023-05-23T18:30:54.344Z,51.89
2023-05-23T18:33:22.973Z,51.89
2023-05-23T18:35:52.345Z,51.78
2023-05-23T18:38:20.804Z,51.04
2023-05-23T18:40:49.094Z,51.39
2023-05-23T18:43:18.272Z,51.07
2023-05-23T18:45:46.578Z,51.01
2023-05-23T18:48:15.570Z,50.88
2023-05-23T18:50:44.259Z,50.10
2023-05-23T18:53:12.953Z,50.40
2023-05-23T18:55:41.273Z,50.55
2023-05-23T18:58:09.618Z,50.14
2023-05-23T19:00:38.399Z,50.04
2023-05-23T19:03:06.766Z,50.06
2023-05-23T19:05:35.193Z,49.43
2023-05-23T19:08:04.345Z,49.38
2023-05-23T19:10:32.598Z,49.31
2023-05-23T19:13:00.852Z,49.48
2023-05-23T19:15:29.168Z,48.86
2023-05-23T19:17:57.710Z,48.98
2023-05-23T19:20:26.062Z,48.76
2023-05-23T19:22:54.688Z,48.33
2023-05-23T19:25:23.101Z,48.25
2023-05-23T19:27:51.828Z,48.46
2023-05-23T19:30:20.194Z,47.88
2023-05-23T19:32:48.592Z,47.63
2023-05-23T19:35:17.238Z,47.44
2023-05-23T19:37:45.949Z,47.21
2023-05-23T19:40:14.520Z,47.09
2023-05-23T19:42:42.845Z,47.18
2023-05-23T19:45:11.639Z,46.73
2023-05-23T19:47:40.004Z,46.66
2023-05-23T19:50:13.506Z,46.31
2023-05-23T19:52:42.857Z,46.39
2023-05-23T19:55:11.539Z,45.94
2023-05-23T19:57:39.799Z,45.65
2023-05-23T20:00:10.653Z,45.78
2023-05-23T20:02:39.436Z,45.39
2023-05-23T20:05:09.060Z,45.14
2023-05-23T20:07:37.470Z,44.89
2023-05-23T20:10:06.177Z,44.73
2023-05-23T20:12:35.057Z,44.63
2023-05-23T20:15:06.573Z,44.33
2023-05-23T20:17:35.876Z,44.18
2023-05-23T20:20:05.039Z,43.77
2023-05-23T20:22:33.359Z,43.57
2023-05-23T20:25:02.168Z,43.34
2023-05-23T20:27:30.436Z,43.18
2023-05-23T20:29:58.885Z,43.03
2023-05-23T20:32:27.278Z,43.29
2023-05-23T20:34:56.138Z,43.06
2023-05-23T20:37:24.378Z,42.71
2023-05-23T20:39:53.184Z,42.56
2023-05-23T20:42:21.657Z,42.40
2023-05-23T20:44:50.070Z,42.44
2023-05-23T20:47:18.637Z,42.22
2023-05-23T20:49:48.433Z,42.09
2023-05-23T20:52:16.705Z,41.01
2023-05-23T20:54:45.027Z,41.69
2023-05-23T20:57:13.774Z,41.56
2023-05-23T20:59:42.061Z,40.98
2023-05-23T21:02:10.506Z,41.08
2023-05-23T21:04:38.862Z,40.91
2023-05-23T21:07:07.126Z,40.76
2023-05-23T21:09:35.396Z,40.26
2023-05-23T21:12:03.638Z,39.97
2023-05-23T21:14:32.234Z,40.10
2023-05-23T21:17:00.487Z,40.21
2023-05-23T21:19:28.845Z,40.23
2023-05-23T21:21:57.294Z,39.99
2023-05-23T21:24:25.559Z,39.71
2023-05-23T21:26:53.901Z,39.65
2023-05-23T21:29:22.181Z,39.35
2023-05-23T21:31:50.662Z,39.41
2023-05-23T21:34:24.017Z,38.99
2023-05-23T21:36:53.815Z,38.87
2023-05-23T21:39:22.205Z,38.62
2023-05-23T21:41:50.480Z,38.55
2023-05-23T21:44:19.516Z,38.62
2023-05-23T21:46:47.934Z,38.87
2023-05-23T21:49:16.488Z,39.07
2023-05-23T21:51:44.959Z,39.06
2023-05-23T21:54:13.282Z,38.65
2023-05-23T21:56:41.946Z,38.73
2023-05-23T21:59:10.782Z,38.24
2023-05-23T22:01:39.110Z,38.33
2023-05-23T22:04:07.816Z,38.61
2023-05-23T22:06:36.384Z,38.24
2023-05-23T22:09:04.716Z,38.00
2023-05-23T22:11:34.763Z,37.65
2023-05-23T22:14:03.408Z,37.52
2023-05-23T22:16:39.975Z,37.37
2023-05-23T22:19:10.596Z,37.66
2023-05-23T22:21:39.023Z,37.81
2023-05-23T22:24:07.568Z,38.02
2023-05-23T22:26:35.856Z,38.14
2023-05-23T22:29:04.484Z,37.64
2023-05-23T22:31:33.007Z,37.72
2023-05-23T22:34:01.294Z,37.83
2023-05-23T22:36:29.562Z,38.08
2023-05-23T22:38:57.797Z,38.00
2023-05-23T22:41:26.037Z,38.10
2023-05-23T22:43:54.357Z,37.68
2023-05-23T22:46:22.791Z,38.05
2023-05-23T22:48:53.349Z,38.37
2023-05-23T22:51:22.246Z,38.34
2023-05-23T22:53:50.558Z,38.61
2023-05-23T22:56:18.999Z,38.66
2023-05-23T22:58:47.252Z,39.01
2023-05-23T23:01:15.590Z,39.11
2023-05-23T23:03:43.964Z,39.39
2023-05-23T23:06:13.138Z,39.37
2023-05-23T23:08:41.401Z,39.70
2023-05-23T23:11:09.702Z,39.45
2023-05-23T23:13:38.011Z,39.84
2023-05-23T23:16:07.401Z,40.45
2023-05-23T23:18:35.662Z,40.56
2023-05-23T23:21:03.976Z,40.28
2023-05-23T23:23:32.262Z,40.51
2023-05-23T23:26:01.114Z,40.83
2023-05-23T23:28:29.353Z,41.24
2023-05-23T23:30:57.641Z,41.62
2023-05-23T23:33:25.908Z,41.75
2023-05-23T23:35:54.533Z,41.65
2023-05-23T23:38:22.845Z,41.77
2023-05-23T23:40:51.556Z,41.94
2023-05-23T23:43:19.889Z,41.99
2023-05-23T23:45:48.209Z,42.38
2023-05-23T23:48:16.547Z,42.43
2023-05-23T23:50:45.017Z,42.55
2023-05-23T23:53:13.477Z,42.99
2023-05-23T23:55:41.798Z,42.89
2023-05-23T23:58:10.044Z,43.13
